createdAt,value
2024-05-09T00:00:40.005Z,3.33
2024-05-09T00:03:09.843Z,3.26
2024-05-09T00:05:38.658Z,3.25
2024-05-09T00:08:06.632Z,3.25
2024-05-09T00:10:37.235Z,3.26
2024-05-09T00:13:06.977Z,3.33
2024-05-09T00:15:34.652Z,3.43
2024-05-09T00:18:04.131Z,3.47
2024-05-09T00:23:01.514Z,3.39
2024-05-09T00:25:28.257Z,3.33
2024-05-09T00:27:55.018Z,3.23
2024-05-09T00:30:31.036Z,3.26
2024-05-09T00:33:01.604Z,3.30
2024-05-09T00:35:28.769Z,3.29
2024-05-09T00:37:55.639Z,3.24
2024-05-09T00:40:30.922Z,3.23
2024-05-09T00:43:08.100Z,3.19
2024-05-09T00:45:35.818Z,3.09
2024-05-09T00:48:07.052Z,3.27
2024-05-09T00:50:37.766Z,3.38
2024-05-09T00:53:08.166Z,3.36
2024-05-09T00:55:37.908Z,3.34
2024-05-09T00:58:06.076Z,3.26
2024-05-09T01:00:38.918Z,3.15
2024-05-09T01:03:12.821Z,3.01
2024-05-09T01:05:43.745Z,2.92
2024-05-09T01:11:02.087Z,2.85
2024-05-09T01:13:28.807Z,2.83
2024-05-09T01:15:55.749Z,2.77
2024-05-09T01:18:22.630Z,2.73
2024-05-09T01:20:49.436Z,2.77
2024-05-09T01:23:16.767Z,2.82
2024-05-09T01:25:44.805Z,2.55
2024-05-09T01:28:13.587Z,2.88
2024-05-09T01:30:40.531Z,2.80
2024-05-09T01:33:10.479Z,2.75
2024-05-09T01:35:41.681Z,2.69
2024-05-09T01:38:12.171Z,2.62
2024-05-09T01:40:40.496Z,2.57
2024-05-09T01:43:09.997Z,2.56
2024-05-09T01:45:38.553Z,2.64
2024-05-09T01:48:05.993Z,2.63
2024-05-09T01:50:39.206Z,2.60
2024-05-09T01:53:15.009Z,2.53
2024-05-09T01:55:43.523Z,2.51
2024-05-09T01:58:10.606Z,2.56
2024-05-09T02:00:42.400Z,2.58
2024-05-09T02:03:14.575Z,2.58
2024-05-09T02:05:45.774Z,2.61
2024-05-09T02:08:15.242Z,2.61
2024-05-09T02:10:44.188Z,2.60
2024-05-09T02:13:11.383Z,2.54
2024-05-09T02:15:39.206Z,2.46
2024-05-09T02:18:08.405Z,2.40
2024-05-09T02:20:38.381Z,2.33
2024-05-09T02:23:06.632Z,2.32
2024-05-09T02:25:34.152Z,2.35
2024-05-09T02:28:03.349Z,2.10
2024-05-09T02:30:39.326Z,2.30
2024-05-09T02:33:13.729Z,2.26
2024-05-09T02:35:41.882Z,2.23
2024-05-09T02:38:12.520Z,2.19
2024-05-09T02:40:40.415Z,2.14
2024-05-09T02:43:09.605Z,2.12
2024-05-09T02:45:37.888Z,2.14
2024-05-09T02:48:05.377Z,2.11
2024-05-09T02:50:37.957Z,2.11
2024-05-09T02:53:07.623Z,2.14
2024-05-09T02:55:34.877Z,2.16
2024-05-09T02:58:01.733Z,2.18
2024-05-09T03:00:37.161Z,2.19
2024-05-09T03:03:08.962Z,2.16
2024-05-09T03:05:37.499Z,2.08
2024-05-09T03:08:04.808Z,1.89
2024-05-09T03:10:36.170Z,1.53
2024-05-09T03:13:13.378Z,1.84
2024-05-09T03:15:42.021Z,1.66
2024-05-09T03:18:09.285Z,1.62
2024-05-09T03:20:37.236Z,1.83
2024-05-09T03:23:05.725Z,1.79
2024-05-09T03:25:33.240Z,1.76
2024-05-09T03:28:01.306Z,1.72
2024-05-09T03:30:38.954Z,1.71
2024-05-09T03:33:19.155Z,1.73
2024-05-09T03:35:47.700Z,1.63
2024-05-09T03:38:14.789Z,1.85
2024-05-09T03:40:46.685Z,1.86
2024-05-09T03:43:14.800Z,2.01
2024-05-09T03:45:45.510Z,2.01
2024-05-09T03:48:12.897Z,2.05
2024-05-09T03:50:40.178Z,2.08
2024-05-09T03:53:10.661Z,2.04
2024-05-09T03:55:38.012Z,2.05
2024-05-09T03:58:07.986Z,2.06
2024-05-09T04:00:38.736Z,2.06
2024-05-09T04:03:09.694Z,2.04
2024-05-09T04:05:42.865Z,2.09
2024-05-09T04:08:11.167Z,2.03
2024-05-09T04:10:38.252Z,2.13
2024-05-09T04:13:05.508Z,2.04
2024-05-09T04:15:33.301Z,2.13
2024-05-09T04:18:01.275Z,2.18
2024-05-09T04:20:36.554Z,2.22
2024-05-09T04:23:08.638Z,2.28
2024-05-09T04:25:36.072Z,2.34
2024-05-09T04:28:03.277Z,2.43
2024-05-09T04:30:36.736Z,2.51
2024-05-09T04:33:08.507Z,2.58
2024-05-09T04:35:37.562Z,2.61
2024-05-09T04:38:05.180Z,2.70
2024-05-09T04:40:35.255Z,2.82
2024-05-09T04:43:05.297Z,2.99
2024-05-09T04:45:32.335Z,3.19
2024-05-09T04:47:59.460Z,3.16
2024-05-09T04:50:35.404Z,3.50
2024-05-09T04:53:05.816Z,3.73
2024-05-09T04:55:33.586Z,3.87
2024-05-09T04:58:00.331Z,3.97
2024-05-09T05:00:34.753Z,4.07
2024-05-09T05:03:07.213Z,4.28
2024-05-09T05:05:42.408Z,4.42
2024-05-09T05:08:13.946Z,4.54
2024-05-09T05:10:41.986Z,4.70
2024-05-09T05:13:20.384Z,4.84
2024-05-09T05:15:49.594Z,5.02
2024-05-09T05:18:16.862Z,5.46
2024-05-09T05:20:44.711Z,6.03
2024-05-09T05:23:16.504Z,6.62
2024-05-09T05:25:43.610Z,7.20
2024-05-09T05:28:11.339Z,7.59
2024-05-09T05:30:38.620Z,8.20
2024-05-09T05:33:06.817Z,8.60
2024-05-09T05:35:34.487Z,8.97
2024-05-09T05:38:01.728Z,9.29
2024-05-09T05:40:36.140Z,9.61
2024-05-09T05:43:10.299Z,10.06
2024-05-09T05:45:37.923Z,10.40
2024-05-09T05:48:06.387Z,10.68
2024-05-09T05:50:36.830Z,11.06
2024-05-09T05:53:07.068Z,11.44
2024-05-09T05:55:34.579Z,12.00
2024-05-09T05:58:02.009Z,12.50
2024-05-09T06:00:35.002Z,12.89
2024-05-09T06:03:06.055Z,13.36
2024-05-09T06:05:33.149Z,13.73
2024-05-09T06:08:00.255Z,14.02
2024-05-09T06:10:36.990Z,14.34
2024-05-09T06:13:06.689Z,14.72
2024-05-09T06:15:33.398Z,14.90
2024-05-09T06:18:00.497Z,15.07
2024-05-09T06:20:35.055Z,15.20
2024-05-09T06:23:05.176Z,15.48
2024-05-09T06:25:32.232Z,15.82
2024-05-09T06:28:02.010Z,16.15
2024-05-09T06:30:37.800Z,16.04
2024-05-09T06:33:08.954Z,16.56
2024-05-09T06:35:36.813Z,16.89
2024-05-09T06:38:04.072Z,17.24
2024-05-09T06:40:37.294Z,17.55
2024-05-09T06:43:18.076Z,17.83
2024-05-09T06:45:50.364Z,18.04
2024-05-09T06:48:21.569Z,18.28
2024-05-09T06:50:49.683Z,18.58
2024-05-09T06:53:17.497Z,18.61
2024-05-09T06:55:44.533Z,18.75
2024-05-09T06:58:13.511Z,18.93
2024-05-09T07:00:42.422Z,18.97
2024-05-09T07:03:10.352Z,19.32
2024-05-09T07:05:38.070Z,19.77
2024-05-09T07:08:08.995Z,20.13
2024-05-09T07:10:38.404Z,20.41
2024-05-09T07:13:13.778Z,20.62
2024-05-09T07:15:41.752Z,20.42
2024-05-09T07:18:13.203Z,20.37
2024-05-09T07:20:43.657Z,20.44
2024-05-09T07:23:11.893Z,20.18
2024-05-09T07:25:40.056Z,20.23
2024-05-09T07:28:16.030Z,20.27
2024-05-09T07:30:43.430Z,20.11
2024-05-09T07:33:22.753Z,19.96
2024-05-09T07:35:50.900Z,19.94
2024-05-09T07:38:17.978Z,19.98
2024-05-09T07:40:44.923Z,20.10
2024-05-09T07:43:13.105Z,20.18
2024-05-09T07:45:49.891Z,20.20
2024-05-09T07:52:38.554Z,20.92
2024-05-09T07:53:49.716Z,21.06
2024-05-09T07:56:22.176Z,21.17
2024-05-09T07:58:52.123Z,21.30
2024-05-09T08:01:19.923Z,21.63
2024-05-09T08:03:47.260Z,21.78
2024-05-09T08:06:14.336Z,21.74
2024-05-09T08:08:41.161Z,21.65
2024-05-09T08:11:08.064Z,21.53
2024-05-09T08:13:34.818Z,21.23
2024-05-09T08:16:01.736Z,21.09
2024-05-09T08:18:29.089Z,20.70
2024-05-09T08:20:56.017Z,20.79
2024-05-09T08:23:23.913Z,21.06
2024-05-09T08:25:51.150Z,21.36
2024-05-09T08:28:17.962Z,21.88
2024-05-09T08:30:45.206Z,22.18
2024-05-09T08:33:12.446Z,22.29
2024-05-09T08:35:39.336Z,22.69
2024-05-09T08:38:07.541Z,22.94
2024-05-09T08:40:36.779Z,22.72
2024-05-09T08:43:10.470Z,22.27
2024-05-09T08:45:43.254Z,22.15
2024-05-09T08:48:12.866Z,22.35
2024-05-09T08:50:43.284Z,22.73
2024-05-09T08:53:10.363Z,22.64
2024-05-09T08:55:40.059Z,22.59
2024-05-09T08:58:12.615Z,22.72
2024-05-09T09:00:42.351Z,22.97
2024-05-09T09:03:11.547Z,23.39
2024-05-09T09:05:40.659Z,23.41
2024-05-09T09:08:08.944Z,23.55
2024-05-09T09:10:39.558Z,23.37
2024-05-09T09:13:09.773Z,23.46
2024-05-09T09:15:50.657Z,23.33
2024-05-09T09:18:18.577Z,23.22
2024-05-09T09:20:45.788Z,23.55
2024-05-09T09:23:13.106Z,23.82
2024-05-09T09:25:40.688Z,23.65
2024-05-09T09:28:07.899Z,23.77
2024-05-09T09:30:38.676Z,23.50
2024-05-09T09:33:06.655Z,23.29
2024-05-09T09:35:35.865Z,23.42
2024-05-09T09:38:04.771Z,23.46
2024-05-09T09:40:37.592Z,23.78
2024-05-09T09:43:18.190Z,23.92
2024-05-09T09:45:46.572Z,24.22
2024-05-09T09:48:15.052Z,24.51
2024-05-09T09:50:42.607Z,24.52
2024-05-09T09:53:10.022Z,24.51
2024-05-09T09:55:37.834Z,24.29
2024-05-09T09:58:05.863Z,24.11
2024-05-09T10:00:34.662Z,24.00
2024-05-09T10:03:02.628Z,24.04
2024-05-09T10:05:30.306Z,24.19
2024-05-09T10:07:58.627Z,24.57
2024-05-09T10:10:32.192Z,25.04
2024-05-09T10:13:02.954Z,25.20
2024-05-09T10:15:30.692Z,25.14
2024-05-09T10:18:07.869Z,24.97
2024-05-09T10:20:45.048Z,24.60
2024-05-09T10:23:28.948Z,24.77
2024-05-09T10:26:00.396Z,25.23
2024-05-09T10:28:28.471Z,25.20
2024-05-09T10:31:11.432Z,25.20
2024-05-09T10:33:52.692Z,24.76
2024-05-09T10:36:22.368Z,24.59
2024-05-09T10:38:52.129Z,24.64
2024-05-09T10:42:10.716Z,24.35
2024-05-09T10:44:38.980Z,24.48
2024-05-09T10:47:05.867Z,24.96
2024-05-09T10:49:33.742Z,24.79
2024-05-09T10:52:04.307Z,24.95
2024-05-09T10:54:39.287Z,25.10
2024-05-09T10:57:06.770Z,25.40
2024-05-09T10:59:39.375Z,25.18
2024-05-09T11:02:10.330Z,24.70
2024-05-09T11:04:39.953Z,24.88
2024-05-09T11:07:14.864Z,25.28
2024-05-09T11:09:43.253Z,25.39
2024-05-09T11:12:10.846Z,25.17
2024-05-09T11:14:37.781Z,24.64
2024-05-09T11:17:07.059Z,25.03
2024-05-09T11:19:42.008Z,25.34
2024-05-09T11:22:09.146Z,25.60
2024-05-09T11:24:36.170Z,25.40
2024-05-09T11:27:05.268Z,25.18
2024-05-09T11:29:43.337Z,25.00
2024-05-09T11:32:12.243Z,25.01
2024-05-09T11:34:42.030Z,24.74
2024-05-09T11:37:10.130Z,24.76
2024-05-09T11:39:37.178Z,24.89
2024-05-09T11:42:04.666Z,24.69
2024-05-09T11:44:31.394Z,25.06
2024-05-09T11:46:58.722Z,25.54
2024-05-09T11:49:26.911Z,25.25
2024-05-09T11:51:54.068Z,25.31
2024-05-09T11:54:20.820Z,25.50
2024-05-09T11:56:47.575Z,25.55
2024-05-09T11:59:14.336Z,25.43
2024-05-09T12:01:41.658Z,25.43
2024-05-09T12:04:09.176Z,24.95
2024-05-09T12:06:36.217Z,24.90
2024-05-09T12:09:03.109Z,25.52
2024-05-09T12:11:29.879Z,25.99
2024-05-09T12:13:56.591Z,25.28
2024-05-09T12:16:23.683Z,24.99
2024-05-09T12:18:50.876Z,25.52
2024-05-09T12:21:17.858Z,25.67
2024-05-09T12:23:44.781Z,25.47
2024-05-09T12:26:11.707Z,25.60
2024-05-09T12:28:38.478Z,25.53
2024-05-09T12:31:05.362Z,25.51
2024-05-09T12:33:32.687Z,25.71
2024-05-09T12:35:59.787Z,25.41
2024-05-09T12:38:26.738Z,25.28
2024-05-09T12:40:53.816Z,25.87
2024-05-09T12:43:20.754Z,26.44
2024-05-09T12:45:47.837Z,26.95
2024-05-09T12:48:15.828Z,27.04
2024-05-09T12:50:42.777Z,27.04
2024-05-09T12:53:09.929Z,26.78
2024-05-09T12:55:44.316Z,26.96
2024-05-09T12:58:20.092Z,26.91
2024-05-09T13:00:47.487Z,26.15
2024-05-09T13:03:14.963Z,25.90
2024-05-09T13:05:44.981Z,25.99
2024-05-09T13:08:12.835Z,25.97
2024-05-09T13:10:39.762Z,25.99
2024-05-09T13:13:06.712Z,25.99
2024-05-09T13:15:34.949Z,25.89
2024-05-09T13:18:04.085Z,26.00
2024-05-09T13:20:34.163Z,25.91
2024-05-09T13:23:07.280Z,25.65
2024-05-09T13:25:37.787Z,25.42
2024-05-09T13:28:06.127Z,25.09
2024-05-09T13:30:39.514Z,24.92
2024-05-09T13:33:13.944Z,24.26
2024-05-09T13:35:46.849Z,23.97
2024-05-09T13:38:16.959Z,23.88
2024-05-09T13:40:44.064Z,24.21
2024-05-09T13:43:11.206Z,24.60
2024-05-09T13:45:37.937Z,24.68
2024-05-09T13:48:07.106Z,24.46
2024-05-09T13:50:36.338Z,23.77
2024-05-09T13:55:57.948Z,23.20
2024-05-09T13:58:24.995Z,23.35
2024-05-09T14:00:52.131Z,23.59
2024-05-09T14:03:20.431Z,23.58
2024-05-09T14:05:50.212Z,23.54
2024-05-09T14:08:20.082Z,23.34
2024-05-09T14:10:47.931Z,23.14
2024-05-09T14:13:17.100Z,23.08
2024-05-09T14:15:44.341Z,23.10
2024-05-09T14:18:13.984Z,23.24
2024-05-09T14:20:42.199Z,23.88
2024-05-09T14:23:09.197Z,24.50
2024-05-09T14:25:42.826Z,25.01
2024-05-09T14:28:11.937Z,25.14
2024-05-09T14:30:40.703Z,25.02
2024-05-09T14:33:09.059Z,24.81
2024-05-09T14:35:38.380Z,24.48
2024-05-09T14:38:06.790Z,24.26
2024-05-09T14:40:40.746Z,24.26
2024-05-09T14:43:15.427Z,24.32
2024-05-09T14:45:43.728Z,24.29
2024-05-09T14:48:16.499Z,23.91
2024-05-09T14:50:43.648Z,23.52
2024-05-09T14:53:12.176Z,23.11
2024-05-09T14:55:40.782Z,22.77
2024-05-09T14:58:10.199Z,22.91
2024-05-09T15:00:42.417Z,23.02
2024-05-09T15:03:12.037Z,23.08
2024-05-09T15:05:40.461Z,23.27
2024-05-09T15:08:08.830Z,23.61
2024-05-09T15:10:36.964Z,23.88
2024-05-09T15:13:08.037Z,23.97
2024-05-09T15:15:36.774Z,23.97
2024-05-09T15:18:05.702Z,23.96
2024-05-09T15:20:36.638Z,24.16
2024-05-09T15:23:06.411Z,24.38
2024-05-09T15:25:34.888Z,24.52
2024-05-09T15:28:02.288Z,24.47
2024-05-09T15:30:32.187Z,24.48
2024-05-09T15:33:04.163Z,24.50
2024-05-09T15:35:32.409Z,24.39
2024-05-09T15:37:59.411Z,24.23
2024-05-09T15:40:35.445Z,24.03
2024-05-09T15:43:07.137Z,23.89
2024-05-09T15:45:34.879Z,23.53
2024-05-09T15:48:03.254Z,23.50
2024-05-09T15:50:36.715Z,23.43
2024-05-09T15:53:08.213Z,23.19
2024-05-09T15:55:35.852Z,23.03
2024-05-09T15:58:04.151Z,22.75
2024-05-09T16:00:38.930Z,22.46
2024-05-09T16:03:13.136Z,22.25
2024-05-09T16:05:41.662Z,22.05
2024-05-09T16:08:08.916Z,21.82
2024-05-09T16:10:37.041Z,21.57
2024-05-09T16:13:04.725Z,21.60
2024-05-09T16:15:32.185Z,21.37
2024-05-09T16:18:01.421Z,21.33
2024-05-09T16:23:19.373Z,20.60
2024-05-09T16:25:48.477Z,20.20
2024-05-09T16:28:16.546Z,19.87
2024-05-09T16:30:43.500Z,20.29
2024-05-09T16:33:12.921Z,20.27
2024-05-09T16:35:41.068Z,20.15
2024-05-09T16:38:09.541Z,20.27
2024-05-09T16:40:40.127Z,19.70
2024-05-09T16:43:13.122Z,19.50
2024-05-09T16:45:45.249Z,18.80
2024-05-09T16:48:14.187Z,18.76
2024-05-09T16:50:41.597Z,18.40
2024-05-09T16:53:09.266Z,17.80
2024-05-09T16:55:36.913Z,17.70
2024-05-09T16:58:05.105Z,16.99
2024-05-09T17:00:40.434Z,17.10
2024-05-09T17:03:15.287Z,16.94
2024-05-09T17:05:44.122Z,16.36
2024-05-09T17:08:11.659Z,16.59
2024-05-09T17:10:39.057Z,16.44
2024-05-09T17:13:08.406Z,16.32
2024-05-09T17:15:37.393Z,16.27
2024-05-09T17:18:07.261Z,16.05
2024-05-09T17:20:40.651Z,16.14
2024-05-09T17:23:13.955Z,16.00
2024-05-09T17:25:42.042Z,15.95
2024-05-09T17:28:10.983Z,15.88
2024-05-09T17:30:40.367Z,15.81
2024-05-09T17:33:11.715Z,15.48
2024-05-09T17:35:40.404Z,15.62
2024-05-09T17:38:07.865Z,15.50
2024-05-09T17:40:37.192Z,15.29
2024-05-09T17:43:10.832Z,15.42
2024-05-09T17:45:40.356Z,15.34
2024-05-09T17:48:11.376Z,15.36
2024-05-09T17:50:40.735Z,15.33
2024-05-09T17:53:10.944Z,15.25
2024-05-09T17:55:38.230Z,15.15
2024-05-09T17:58:06.062Z,15.03
2024-05-09T18:00:39.413Z,14.94
2024-05-09T18:03:12.446Z,14.85
2024-05-09T18:05:44.281Z,14.81
2024-05-09T18:08:13.090Z,14.74
2024-05-09T18:10:42.226Z,14.29
2024-05-09T18:13:11.239Z,14.60
2024-05-09T18:15:39.338Z,14.46
2024-05-09T18:18:07.083Z,14.42
2024-05-09T18:20:41.938Z,14.22
2024-05-09T18:23:13.979Z,14.22
2024-05-09T18:25:41.422Z,14.08
2024-05-09T18:28:08.316Z,13.98
2024-05-09T18:30:36.839Z,13.85
2024-05-09T18:33:06.698Z,13.66
2024-05-09T18:35:35.058Z,13.47
2024-05-09T18:38:02.085Z,13.49
2024-05-09T18:40:34.499Z,13.35
2024-05-09T18:43:07.157Z,13.09
2024-05-09T18:45:45.465Z,13.10
2024-05-09T18:48:13.818Z,12.99
2024-05-09T18:50:41.654Z,12.87
2024-05-09T18:53:11.770Z,12.76
2024-05-09T18:55:40.019Z,12.68
2024-05-09T18:58:07.292Z,12.62
2024-05-09T19:00:37.770Z,12.56
2024-05-09T19:03:10.477Z,12.50
2024-05-09T19:05:40.741Z,12.45
2024-05-09T19:08:08.292Z,12.36
2024-05-09T19:10:37.584Z,12.43
2024-05-09T19:13:09.147Z,12.45
2024-05-09T19:15:39.751Z,12.43
2024-05-09T19:18:07.574Z,12.47
2024-05-09T19:20:36.606Z,12.47
2024-05-09T19:23:05.924Z,12.34
2024-05-09T19:25:33.763Z,12.40
2024-05-09T19:28:01.199Z,12.48
2024-05-09T19:30:37.653Z,12.27
2024-05-09T19:33:08.949Z,12.47
2024-05-09T19:35:36.118Z,12.46
2024-05-09T19:38:03.101Z,12.46
2024-05-09T19:40:32.426Z,12.44
2024-05-09T19:43:02.669Z,12.39
2024-05-09T19:45:30.197Z,12.40
2024-05-09T19:47:57.532Z,12.39
2024-05-09T19:50:32.472Z,12.39
2024-05-09T19:53:07.335Z,12.38
2024-05-09T19:55:35.060Z,12.37
2024-05-09T19:58:05.431Z,12.35
2024-05-09T20:00:42.120Z,12.23
2024-05-09T20:03:13.166Z,12.18
2024-05-09T20:05:47.835Z,12.15
2024-05-09T20:08:15.072Z,12.27
2024-05-09T20:10:41.899Z,12.23
2024-05-09T20:13:09.111Z,12.21
2024-05-09T20:15:37.815Z,12.21
2024-05-09T20:18:05.978Z,12.19
2024-05-09T20:20:39.063Z,12.26
2024-05-09T20:23:11.524Z,12.23
2024-05-09T20:25:38.778Z,12.15
2024-05-09T20:28:08.943Z,12.22
2024-05-09T20:30:36.448Z,12.25
2024-05-09T20:33:07.082Z,12.28
2024-05-09T20:35:35.456Z,12.28
2024-05-09T20:38:03.223Z,12.28
2024-05-09T20:40:35.092Z,12.26
2024-05-09T20:43:06.212Z,12.29
2024-05-09T20:45:33.774Z,12.30
2024-05-09T20:48:01.068Z,12.22
2024-05-09T20:50:36.505Z,12.30
2024-05-09T20:53:13.421Z,12.32
2024-05-09T20:55:41.359Z,12.32
2024-05-09T20:58:09.205Z,12.35
2024-05-09T21:00:40.495Z,12.33
2024-05-09T21:03:12.621Z,12.21
2024-05-09T21:05:41.048Z,12.32
2024-05-09T21:08:08.159Z,12.33
2024-05-09T21:10:36.219Z,12.33
2024-05-09T21:13:04.136Z,12.35
2024-05-09T21:15:31.955Z,12.31
2024-05-09T21:17:59.281Z,12.32
2024-05-09T21:20:31.706Z,12.30
2024-05-09T21:23:00.845Z,12.28
2024-05-09T21:25:27.857Z,12.29
2024-05-09T21:27:55.023Z,12.30
2024-05-09T21:30:32.376Z,12.31
2024-05-09T21:33:14.572Z,12.32
2024-05-09T21:35:43.117Z,12.29
2024-05-09T21:38:10.349Z,12.28
2024-05-09T21:40:38.217Z,12.32
2024-05-09T21:43:07.524Z,12.32
2024-05-09T21:45:35.569Z,12.20
2024-05-09T21:48:06.991Z,12.27
2024-05-09T21:50:41.403Z,12.26
2024-05-09T21:53:14.237Z,12.24
2024-05-09T21:55:42.097Z,12.21
2024-05-09T21:58:23.845Z,12.13
2024-05-09T22:00:52.054Z,12.09
2024-05-09T22:03:19.331Z,12.12
2024-05-09T22:05:50.712Z,12.17
2024-05-09T22:08:22.095Z,12.11
2024-05-09T22:10:49.467Z,12.11
2024-05-09T22:13:22.247Z,12.03
2024-05-09T22:15:49.302Z,12.04
2024-05-09T22:18:16.128Z,12.01
2024-05-09T22:20:46.789Z,12.01
2024-05-09T22:23:15.206Z,11.99
2024-05-09T22:25:42.376Z,11.98
2024-05-09T22:28:09.745Z,11.98
2024-05-09T22:30:39.472Z,11.97
2024-05-09T22:33:09.099Z,11.97
2024-05-09T22:35:37.356Z,11.93
2024-05-09T22:38:04.292Z,11.88
2024-05-09T22:40:41.693Z,11.81
2024-05-09T22:43:16.652Z,11.75
2024-05-09T22:45:43.822Z,11.70
2024-05-09T22:48:10.762Z,11.67
2024-05-09T22:50:37.746Z,11.61
2024-05-09T22:53:05.636Z,11.50
2024-05-09T22:55:32.494Z,11.45
2024-05-09T22:58:02.308Z,11.37
2024-05-09T23:00:31.914Z,11.21
2024-05-09T23:03:02.275Z,11.24
2024-05-09T23:05:29.613Z,11.19
2024-05-09T23:07:56.804Z,11.16
2024-05-09T23:10:31.671Z,11.14
2024-05-09T23:13:03.354Z,10.98
2024-05-09T23:15:30.351Z,11.10
2024-05-09T23:17:58.766Z,11.08
2024-05-09T23:20:35.889Z,11.00
2024-05-09T23:23:06.778Z,11.06
2024-05-09T23:25:34.033Z,11.09
2024-05-09T23:28:01.019Z,11.10
2024-05-09T23:30:36.496Z,11.10
2024-05-09T23:33:06.669Z,11.15
2024-05-09T23:35:33.582Z,11.19
2024-05-09T23:38:00.438Z,11.21
2024-05-09T23:40:37.336Z,11.29
2024-05-09T23:43:07.520Z,11.33
2024-05-09T23:45:35.381Z,11.35
2024-05-09T23:48:03.036Z,11.40
2024-05-09T23:50:35.601Z,11.43
2024-05-09T23:53:09.343Z,11.42
2024-05-09T23:55:37.404Z,11.41
2024-05-09T23:58:04.730Z,11.38
